Time;durP1;ratioP1;P1;durP2;ratioP2;P2;SDS_P1;SDS_P2;PMS_P1;PMS_P2;Temp;Humidity;BMP_temperature;BMP_pressure;BME280_temperature;BME280_humidity;BME280_pressure;Samples;Min_cycle;Max_cycle;Signal;HPM_P1;HPM_P2
2023/04/18 00:00:21;;;;;;;12.77;10.63;;;6.40;99.90;;;;;;5079836;28;20048;-33
2023/04/18 00:02:47;;;;;;;14.23;10.73;;;6.40;99.90;;;;;;5061344;28;20506;-33
2023/04/18 00:05:16;;;;;;;13.82;10.77;;;6.40;99.90;;;;;;5058039;28;20047;-33
2023/04/18 00:07:43;;;;;;;14.43;11.10;;;6.40;99.90;;;;;;5095044;28;20055;-33
2023/04/18 00:10:09;;;;;;;13.65;11.27;;;6.40;99.90;;;;;;5060375;28;20047;-33
2023/04/18 00:12:35;;;;;;;14.18;11.10;;;6.40;99.90;;;;;;5073657;28;20040;-33
2023/04/18 00:15:03;;;;;;;14.63;11.77;;;6.30;99.90;;;;;;5069577;28;20032;-34
2023/04/18 00:17:30;;;;;;;13.73;10.95;;;6.30;99.90;;;;;;5064756;28;20359;-34
2023/04/18 00:20:05;;;;;;;13.18;11.48;;;6.30;99.90;;;;;;5087473;28;20036;-33
2023/04/18 00:22:32;;;;;;;13.23;10.35;;;6.30;99.90;;;;;;5076716;28;20392;-33
2023/04/18 00:24:58;;;;;;;11.57;10.38;;;6.20;99.90;;;;;;5076912;28;20503;-33
2023/04/18 00:27:24;;;;;;;14.63;10.98;;;6.20;99.90;;;;;;5101226;28;20040;-33
2023/04/18 00:29:50;;;;;;;14.13;12.18;;;6.20;99.90;;;;;;5073881;28;20508;-33
2023/04/18 00:32:16;;;;;;;13.43;11.00;;;6.20;99.90;;;;;;5067824;28;20075;-33
2023/04/18 00:34:42;;;;;;;14.13;11.20;;;6.10;99.90;;;;;;5076523;28;20077;-33
2023/04/18 00:37:08;;;;;;;13.30;11.00;;;6.10;99.90;;;;;;5072805;28;20047;-33
2023/04/18 00:39:34;;;;;;;12.63;10.93;;;6.10;99.90;;;;;;5094433;28;20080;-33
2023/04/18 00:42:01;;;;;;;14.07;11.60;;;6.00;99.90;;;;;;5071935;28;20125;-33
2023/04/18 00:44:27;;;;;;;13.50;10.50;;;5.90;99.90;;;;;;5074174;28;20043;-35
2023/04/18 00:46:53;;;;;;;13.52;11.60;;;5.90;99.90;;;;;;5057442;28;20040;-36
2023/04/18 00:49:19;;;;;;;14.23;11.73;;;5.90;99.90;;;;;;5076299;28;20040;-36
2023/04/18 00:51:46;;;;;;;13.82;11.25;;;5.90;99.90;;;;;;5088825;28;20036;-38
2023/04/18 00:54:12;;;;;;;13.93;11.70;;;5.80;99.90;;;;;;5088749;28;20032;-37
2023/04/18 00:56:38;;;;;;;14.35;11.93;;;5.80;99.90;;;;;;5076766;28;20507;-36
2023/04/18 00:59:05;;;;;;;16.05;13.07;;;5.80;99.90;;;;;;5068183;28;20086;-36
2023/04/18 01:01:32;;;;;;;16.52;12.30;;;5.80;99.90;;;;;;5067562;28;20047;-40
2023/04/18 01:03:58;;;;;;;16.15;12.20;;;5.70;99.90;;;;;;5063588;28;20037;-36
2023/04/18 01:06:25;;;;;;;14.88;12.68;;;5.70;99.90;;;;;;5084982;28;20047;-37
2023/04/18 01:08:52;;;;;;;16.40;12.95;;;5.70;99.90;;;;;;5077080;28;20129;-33
2023/04/18 01:11:19;;;;;;;15.35;11.82;;;5.70;99.90;;;;;;5078739;28;20397;-33
2023/04/18 01:14:01;;;;;;;16.52;12.63;;;5.70;99.90;;;;;;5065853;28;20044;-33
2023/04/18 01:16:32;;;;;;;16.00;12.75;;;5.70;99.90;;;;;;5063999;28;20037;-32
2023/04/18 01:19:02;;;;;;;14.93;13.10;;;5.60;99.90;;;;;;5063754;28;20032;-32
2023/04/18 01:21:35;;;;;;;15.55;11.98;;;5.60;99.90;;;;;;5073058;28;20046;-32
2023/04/18 01:24:12;;;;;;;14.15;12.15;;;5.60;99.90;;;;;;5070725;28;20401;-32
2023/04/18 01:26:39;;;;;;;16.02;12.57;;;5.50;99.90;;;;;;5067363;28;20036;-33
2023/04/18 01:29:06;;;;;;;16.05;12.18;;;5.50;99.90;;;;;;5066622;28;20105;-32
2023/04/18 01:31:35;;;;;;;14.65;13.00;;;5.50;99.90;;;;;;5067267;28;20036;-33
2023/04/18 01:34:02;;;;;;;17.25;12.48;;;5.40;99.90;;;;;;5065575;28;20035;-32
2023/04/18 01:36:28;;;;;;;16.42;12.52;;;5.50;99.90;;;;;;5074908;28;20071;-32
2023/04/18 01:38:54;;;;;;;16.38;12.95;;;5.50;99.90;;;;;;5057795;28;20496;-32
2023/04/18 01:41:20;;;;;;;16.95;12.93;;;5.50;99.90;;;;;;5057679;28;20040;-33
2023/04/18 01:43:49;;;;;;;15.45;12.90;;;5.50;99.90;;;;;;5075517;28;20113;-33
2023/04/18 01:46:15;;;;;;;17.63;12.63;;;5.60;99.90;;;;;;5092381;28;20063;-34
2023/04/18 01:48:41;;;;;;;14.73;12.13;;;6.00;99.90;;;;;;5072552;28;20528;-34
2023/04/18 01:51:07;;;;;;;15.75;13.02;;;5.70;99.90;;;;;;5067776;28;20040;-34
2023/04/18 01:53:33;;;;;;;15.52;13.23;;;5.70;99.90;;;;;;5076820;28;20028;-34
2023/04/18 01:55:59;;;;;;;18.02;12.30;;;5.80;99.90;;;;;;5072405;28;20071;-34
2023/04/18 01:58:25;;;;;;;17.40;13.23;;;5.70;99.90;;;;;;5070598;28;20088;-34
2023/04/18 02:00:52;;;;;;;15.70;12.20;;;5.80;99.90;;;;;;5073599;28;20036;-34
2023/04/18 02:03:18;;;;;;;15.05;12.73;;;5.90;99.90;;;;;;5075464;28;20133;-35
2023/04/18 02:05:45;;;;;;;16.33;12.68;;;5.80;99.90;;;;;;5074582;28;20035;-34
2023/04/18 02:08:10;;;;;;;16.35;12.90;;;5.80;99.90;;;;;;5077650;28;20093;-34
2023/04/18 02:10:36;;;;;;;18.38;13.48;;;5.90;99.90;;;;;;5078452;28;20051;-33
2023/04/18 02:13:02;;;;;;;17.10;12.57;;;5.90;99.90;;;;;;5071787;28;20127;-34
2023/04/18 02:15:28;;;;;;;17.70;13.25;;;5.90;99.90;;;;;;5086946;28;20072;-34
2023/04/18 02:17:54;;;;;;;16.60;13.15;;;5.90;99.90;;;;;;5079794;28;20054;-34
2023/04/18 02:20:20;;;;;;;14.93;12.65;;;5.90;99.90;;;;;;5077233;28;20028;-34
2023/04/18 02:22:46;;;;;;;13.90;12.23;;;6.00;99.90;;;;;;5088826;28;20036;-34
2023/04/18 02:25:12;;;;;;;14.45;12.27;;;6.00;99.90;;;;;;5078515;28;20047;-34
2023/04/18 02:27:39;;;;;;;15.80;12.52;;;5.90;99.90;;;;;;5061994;28;20394;-34
2023/04/18 02:30:06;;;;;;;16.60;13.30;;;6.00;99.90;;;;;;5091335;28;20083;-34
2023/04/18 02:32:32;;;;;;;15.07;12.30;;;6.10;99.90;;;;;;5073087;28;20051;-34
2023/04/18 02:34:57;;;;;;;16.77;12.60;;;6.00;99.90;;;;;;5077160;28;20036;-34
2023/04/18 02:37:23;;;;;;;17.83;12.65;;;6.00;99.90;;;;;;5072158;28;20111;-34
2023/04/18 02:39:50;;;;;;;14.20;12.15;;;6.00;99.90;;;;;;5078498;28;20088;-34
2023/04/18 02:42:15;;;;;;;14.82;12.27;;;6.10;99.90;;;;;;5078662;28;20036;-34
2023/04/18 02:44:41;;;;;;;17.90;12.90;;;6.00;99.90;;;;;;5080773;28;20528;-34
2023/04/18 02:47:07;;;;;;;16.17;13.07;;;6.00;99.90;;;;;;5061274;28;20064;-34
2023/04/18 02:49:33;;;;;;;14.60;12.55;;;6.00;99.90;;;;;;5076975;28;20034;-34
2023/04/18 02:51:58;;;;;;;16.10;12.57;;;6.00;99.90;;;;;;5064711;28;20565;-34
2023/04/18 02:54:24;;;;;;;17.02;13.27;;;6.00;99.90;;;;;;5069447;28;20036;-34
2023/04/18 02:56:54;;;;;;;17.17;12.90;;;6.00;99.90;;;;;;5050171;28;20047;-34
2023/04/18 02:59:20;;;;;;;17.25;12.85;;;6.00;99.90;;;;;;5079362;28;20047;-34
2023/04/18 03:01:45;;;;;;;16.90;12.52;;;5.90;99.90;;;;;;5078301;28;20052;-34
2023/04/18 03:04:11;;;;;;;15.50;12.52;;;5.90;99.90;;;;;;5084148;28;20048;-34
2023/04/18 03:06:37;;;;;;;17.23;12.75;;;5.80;99.90;;;;;;5067292;28;20162;-34
2023/04/18 03:09:03;;;;;;;16.67;13.30;;;5.80;99.90;;;;;;5067480;28;20039;-34
2023/04/18 03:11:29;;;;;;;17.92;14.05;;;5.80;99.90;;;;;;5068043;28;20497;-34
2023/04/18 03:13:55;;;;;;;16.88;13.30;;;5.80;99.90;;;;;;5055117;28;20044;-34
2023/04/18 03:16:21;;;;;;;19.52;13.02;;;5.80;99.90;;;;;;5060803;28;20028;-34
2023/04/18 03:18:47;;;;;;;18.40;13.50;;;5.70;99.90;;;;;;5072197;28;20072;-34
2023/04/18 03:21:13;;;;;;;16.65;13.15;;;5.80;99.90;;;;;;5068130;28;20043;-35
2023/04/18 03:23:39;;;;;;;18.77;13.30;;;5.80;99.90;;;;;;5054028;28;20160;-35
2023/04/18 03:26:07;;;;;;;17.50;13.60;;;5.80;99.90;;;;;;5048529;28;20047;-34
2023/04/18 03:28:33;;;;;;;18.42;14.05;;;5.80;99.90;;;;;;5072731;28;20111;-34
2023/04/18 03:30:59;;;;;;;19.55;14.55;;;5.90;99.90;;;;;;5078296;28;20039;-34
2023/04/18 03:33:25;;;;;;;18.00;13.77;;;5.90;99.90;;;;;;5086517;28;20040;-34
2023/04/18 03:35:51;;;;;;;19.90;14.25;;;5.90;99.90;;;;;;5064721;28;20086;-34
2023/04/18 03:38:17;;;;;;;20.23;14.85;;;5.90;99.90;;;;;;5086958;28;20036;-34
2023/04/18 03:40:43;;;;;;;18.88;13.52;;;6.00;99.90;;;;;;5065253;28;20040;-34
2023/04/18 03:43:09;;;;;;;16.60;13.20;;;6.00;99.90;;;;;;5133579;22;20044;-34
2023/04/18 03:45:36;;;;;;;18.45;13.30;;;6.10;99.90;;;;;;5066404;22;20397;-80
2023/04/18 03:48:01;;;;;;;18.20;14.00;;;6.20;99.90;;;;;;5087869;28;20032;-80
2023/04/18 03:50:27;;;;;;;18.13;13.38;;;6.20;99.90;;;;;;5070400;28;20028;-81
2023/04/18 03:52:53;;;;;;;17.48;13.45;;;6.10;99.90;;;;;;5078871;28;20047;-80
2023/04/18 03:55:19;;;;;;;17.95;13.50;;;6.20;99.90;;;;;;5087161;28;20075;-80
2023/04/18 03:57:45;;;;;;;18.25;14.10;;;6.30;99.90;;;;;;5073615;28;20040;-81
2023/04/18 04:00:12;;;;;;;16.35;12.93;;;6.30;99.90;;;;;;5072933;28;20115;-81
2023/04/18 04:02:38;;;;;;;17.73;12.60;;;6.40;99.90;;;;;;5074112;28;20036;-80
2023/04/18 04:05:04;;;;;;;18.77;12.80;;;6.40;99.90;;;;;;5050615;28;20051;-82
2023/04/18 04:07:32;;;;;;;15.07;11.77;;;6.60;99.90;;;;;;5086550;28;20981;-82
2023/04/18 04:09:58;;;;;;;18.08;12.65;;;6.50;99.90;;;;;;5091401;28;20120;-81
2023/04/18 04:12:24;;;;;;;18.27;12.98;;;6.50;99.90;;;;;;5077933;28;20137;-82
2023/04/18 04:14:50;;;;;;;15.80;12.70;;;6.40;99.90;;;;;;5078020;28;20036;-82
2023/04/18 04:17:16;;;;;;;15.30;11.57;;;6.50;99.90;;;;;;5072120;28;20032;-81
2023/04/18 04:19:41;;;;;;;17.00;12.23;;;6.40;99.90;;;;;;5071108;28;20036;-82
2023/04/18 04:22:07;;;;;;;16.55;12.05;;;6.50;99.90;;;;;;5071132;28;20047;-81
2023/04/18 04:24:34;;;;;;;21.52;12.68;;;6.70;99.90;;;;;;5063277;28;20036;-81
2023/04/18 04:27:00;;;;;;;19.27;12.75;;;6.50;99.90;;;;;;5065122;28;20040;-81
2023/04/18 04:29:27;;;;;;;16.55;12.40;;;6.50;99.90;;;;;;5064217;28;20071;-81
2023/04/18 04:31:53;;;;;;;16.30;12.18;;;6.20;99.90;;;;;;5055625;28;20066;-81
2023/04/18 04:34:20;;;;;;;16.60;13.20;;;6.60;99.90;;;;;;5061276;28;20036;-80
2023/04/18 04:36:46;;;;;;;18.50;12.77;;;6.40;99.90;;;;;;5091577;28;20032;-81
2023/04/18 04:39:13;;;;;;;17.33;12.98;;;6.60;99.90;;;;;;5068306;28;20045;-81
2023/04/18 04:41:39;;;;;;;18.58;13.43;;;6.60;99.90;;;;;;5070157;28;20087;-81
2023/04/18 04:44:05;;;;;;;19.60;13.38;;;6.70;99.90;;;;;;5057650;28;20044;-81
2023/04/18 04:46:32;;;;;;;19.75;15.00;;;6.80;99.90;;;;;;5049826;28;20066;-81
2023/04/18 04:48:59;;;;;;;19.48;13.25;;;6.70;99.90;;;;;;5069629;28;20036;-82
2023/04/18 04:51:26;;;;;;;21.48;15.00;;;6.70;99.90;;;;;;5071627;28;20048;-82
2023/04/18 04:53:52;;;;;;;20.45;14.32;;;6.70;99.90;;;;;;5087275;28;20062;-81
2023/04/18 04:56:18;;;;;;;20.85;15.45;;;6.90;99.90;;;;;;5073082;28;20130;-81
2023/04/18 04:58:48;;;;;;;22.35;15.15;;;6.90;99.90;;;;;;5072180;28;20493;-79
2023/04/18 05:01:15;;;;;;;21.15;15.57;;;6.70;99.90;;;;;;5064510;28;20053;-80
2023/04/18 05:03:44;;;;;;;22.55;15.70;;;6.80;99.90;;;;;;5053421;28;20114;-80
2023/04/18 05:06:10;;;;;;;21.25;15.65;;;6.90;99.90;;;;;;5049860;28;20746;-80
2023/04/18 05:08:35;;;;;;;19.95;15.40;;;6.80;99.90;;;;;;5074677;28;20055;-81
2023/04/18 05:11:02;;;;;;;19.52;14.52;;;6.80;99.90;;;;;;5051784;28;20037;-82
2023/04/18 05:13:27;;;;;;;19.08;14.20;;;6.90;99.90;;;;;;5063632;28;20028;-82
2023/04/18 05:15:53;;;;;;;22.27;15.20;;;6.90;99.90;;;;;;5058686;28;20503;-82
2023/04/18 05:18:19;;;;;;;20.98;16.27;;;7.00;99.90;;;;;;5046254;28;20062;-81
2023/04/18 05:20:45;;;;;;;21.00;15.30;;;6.80;99.90;;;;;;5055385;28;20253;-81
2023/04/18 05:23:11;;;;;;;22.35;14.63;;;6.90;99.90;;;;;;5067756;28;20032;-81
2023/04/18 05:25:36;;;;;;;19.90;15.68;;;6.80;99.90;;;;;;5052085;28;20036;-80
2023/04/18 05:28:07;;;;;;;20.73;15.27;;;6.90;99.90;;;;;;5051305;28;20047;-84
2023/04/18 05:30:32;;;;;;;19.55;14.43;;;7.40;99.90;;;;;;5086781;28;20036;-84
2023/04/18 05:32:58;;;;;;;20.20;15.38;;;6.90;99.90;;;;;;5069286;28;20040;-79
2023/04/18 05:35:23;;;;;;;20.77;15.63;;;6.90;99.90;;;;;;5066456;28;20040;-81
2023/04/18 05:37:50;;;;;;;20.42;15.18;;;6.80;99.90;;;;;;5070061;28;20035;-81
2023/04/18 05:40:15;;;;;;;19.63;16.27;;;6.90;99.90;;;;;;5057026;28;20036;-83
2023/04/18 05:42:41;;;;;;;17.52;14.30;;;7.70;99.90;;;;;;5050827;28;20033;-82
2023/04/18 05:45:07;;;;;;;23.02;16.30;;;7.00;99.90;;;;;;5063138;28;20228;-82
2023/04/18 05:47:33;;;;;;;20.05;15.45;;;6.90;99.90;;;;;;5068398;28;20040;-83
2023/04/18 05:49:59;;;;;;;24.27;15.93;;;6.90;99.90;;;;;;5064259;28;20037;-83
2023/04/18 05:52:25;;;;;;;20.67;15.35;;;7.00;99.90;;;;;;5066364;28;20034;-84
2023/04/18 05:54:51;;;;;;;24.30;15.73;;;7.10;99.90;;;;;;5050266;28;20400;-87
2023/04/18 05:57:17;;;;;;;20.92;15.43;;;6.90;99.90;;;;;;5050821;28;20119;-85
2023/04/18 05:59:43;;;;;;;21.73;15.07;;;7.10;99.90;;;;;;5069147;28;20514;-84
2023/04/18 06:02:12;;;;;;;17.83;14.40;;;7.00;99.90;;;;;;5053628;28;20455;-82
2023/04/18 06:04:39;;;;;;;18.35;14.80;;;7.00;99.90;;;;;;5061979;28;20050;-86
2023/04/18 06:07:05;;;;;;;22.23;16.10;;;7.00;99.90;;;;;;5069773;28;20579;-87
2023/04/18 06:09:31;;;;;;;20.77;15.48;;;7.10;99.90;;;;;;5075866;28;20119;-84
2023/04/18 06:11:57;;;;;;;24.00;15.48;;;6.90;99.90;;;;;;5060725;28;20028;-86
2023/04/18 06:14:22;;;;;;;22.60;15.13;;;7.10;99.90;;;;;;5077377;28;20046;-87
2023/04/18 06:16:49;;;;;;;18.15;14.27;;;7.20;99.90;;;;;;5063531;28;20407;-85
2023/04/18 06:19:14;;;;;;;20.73;15.73;;;7.30;99.90;;;;;;5070710;28;20526;-86
2023/04/18 06:21:41;;;;;;;19.05;13.90;;;7.20;99.90;;;;;;5067860;28;20039;-83
2023/04/18 06:24:07;;;;;;;19.70;15.18;;;7.40;99.90;;;;;;5064955;28;20519;-86
2023/04/18 06:26:33;;;;;;;22.08;15.32;;;7.80;99.90;;;;;;5066835;28;20089;-85
2023/04/18 06:28:59;;;;;;;20.58;15.88;;;7.70;99.90;;;;;;5052326;28;20028;-84
2023/04/18 06:31:24;;;;;;;19.30;14.88;;;7.90;99.90;;;;;;5060637;28;20044;-83
2023/04/18 06:33:50;;;;;;;19.00;14.65;;;7.80;99.90;;;;;;5071317;28;20035;-83
2023/04/18 06:36:15;;;;;;;23.15;15.18;;;7.90;99.90;;;;;;5069046;28;20561;-83
2023/04/18 06:38:41;;;;;;;20.48;15.70;;;7.90;99.90;;;;;;5050988;28;20043;-83
2023/04/18 06:41:07;;;;;;;19.55;15.00;;;8.10;99.90;;;;;;5070002;28;20044;-83
2023/04/18 06:43:34;;;;;;;20.70;15.50;;;8.20;99.90;;;;;;5065260;28;20040;-82
2023/04/18 06:46:00;;;;;;;22.80;15.20;;;8.40;99.90;;;;;;5050603;28;20036;-83
2023/04/18 06:48:26;;;;;;;21.38;16.20;;;8.60;99.90;;;;;;5051047;28;20032;-83
2023/04/18 06:50:51;;;;;;;21.35;16.08;;;8.60;99.90;;;;;;5072396;28;20028;-83
2023/04/18 06:53:17;;;;;;;19.42;14.65;;;8.70;99.90;;;;;;5049546;28;20040;-82
2023/04/18 06:55:43;;;;;;;22.48;15.02;;;8.60;99.90;;;;;;5061728;28;20048;-82
2023/04/18 06:58:08;;;;;;;19.60;14.68;;;8.90;99.90;;;;;;5057913;28;20533;-83
2023/04/18 07:00:34;;;;;;;21.88;15.82;;;8.60;99.90;;;;;;5066477;28;20033;-83
2023/04/18 07:03:01;;;;;;;18.92;14.48;;;8.60;99.90;;;;;;5070378;28;20036;-83
2023/04/18 07:05:27;;;;;;;17.45;14.30;;;8.60;99.90;;;;;;5056680;28;20162;-81
2023/04/18 07:07:52;;;;;;;20.55;15.55;;;8.50;99.90;;;;;;5071137;28;20504;-83
2023/04/18 07:10:18;;;;;;;16.92;14.73;;;8.60;99.90;;;;;;5073661;28;20047;-83
2023/04/18 07:12:44;;;;;;;18.13;14.05;;;8.60;99.90;;;;;;5073728;28;20040;-83
2023/04/18 07:15:10;;;;;;;18.02;14.27;;;8.80;99.90;;;;;;5051371;28;20408;-83
2023/04/18 07:17:35;;;;;;;17.15;13.38;;;8.70;99.90;;;;;;5069602;28;20036;-82
2023/04/18 07:20:01;;;;;;;16.85;13.10;;;8.80;99.90;;;;;;5070143;28;20400;-84
2023/04/18 07:22:27;;;;;;;17.52;12.70;;;9.50;99.90;;;;;;5067440;28;20095;-83
2023/04/18 07:24:52;;;;;;;17.75;13.77;;;8.90;99.90;;;;;;5051673;28;20117;-83
2023/04/18 07:27:18;;;;;;;17.00;13.50;;;8.90;99.90;;;;;;5054751;28;20041;-83
2023/04/18 07:29:43;;;;;;;16.60;12.88;;;9.00;99.90;;;;;;5076122;28;20040;-84
2023/04/18 07:32:09;;;;;;;17.58;13.60;;;9.10;99.90;;;;;;5065950;28;20041;-83
2023/04/18 07:34:36;;;;;;;16.95;12.75;;;9.20;99.90;;;;;;5070104;28;20029;-84
2023/04/18 07:37:01;;;;;;;15.65;12.35;;;9.20;99.90;;;;;;5065473;28;20047;-84
2023/04/18 07:39:27;;;;;;;15.75;12.13;;;9.50;99.90;;;;;;5073444;28;20024;-83
2023/04/18 07:41:53;;;;;;;15.88;11.85;;;9.80;99.90;;;;;;5048669;28;20036;-83
2023/04/18 07:44:20;;;;;;;15.18;11.90;;;9.80;99.90;;;;;;5062857;28;20102;-83
2023/04/18 07:46:46;;;;;;;15.73;12.05;;;9.90;99.90;;;;;;5065123;28;20527;-83
2023/04/18 07:49:11;;;;;;;15.70;12.02;;;9.80;99.90;;;;;;5070319;28;20060;-83
2023/04/18 07:51:37;;;;;;;16.23;11.60;;;10.00;99.90;;;;;;5064689;28;20074;-82
2023/04/18 07:54:03;;;;;;;15.30;12.00;;;10.20;99.90;;;;;;5065515;28;20044;-83
2023/04/18 07:56:28;;;;;;;12.70;11.40;;;10.40;99.90;;;;;;5063383;28;20032;-82
2023/04/18 07:58:54;;;;;;;14.50;11.75;;;10.70;99.90;;;;;;5058907;28;20060;-83
2023/04/18 08:01:23;;;;;;;15.30;12.38;;;10.70;99.90;;;;;;5065957;28;20036;-84
2023/04/18 08:03:49;;;;;;;14.15;11.95;;;10.50;99.90;;;;;;5065218;28;20040;-84
2023/04/18 08:06:15;;;;;;;15.40;11.13;;;10.60;99.90;;;;;;5063112;28;20523;-80
2023/04/18 08:08:41;;;;;;;14.93;11.57;;;10.60;99.90;;;;;;5071784;28;20060;-84
2023/04/18 08:11:07;;;;;;;14.82;12.00;;;10.60;99.90;;;;;;5046516;28;20051;-82
2023/04/18 08:13:33;;;;;;;15.15;11.18;;;10.60;99.90;;;;;;5060732;28;20127;-82
2023/04/18 08:16:01;;;;;;;15.40;11.82;;;10.50;99.90;;;;;;5055861;28;20455;-81
2023/04/18 08:18:26;;;;;;;14.85;11.95;;;10.50;99.90;;;;;;5052568;28;20040;-85
2023/04/18 08:20:52;;;;;;;13.63;11.50;;;10.70;99.90;;;;;;5043983;28;20081;-85
2023/04/18 08:23:17;;;;;;;15.65;11.98;;;10.70;99.90;;;;;;5070083;28;20177;-84
2023/04/18 08:25:43;;;;;;;15.20;12.32;;;10.80;99.90;;;;;;5059805;28;20123;-84
2023/04/18 08:28:09;;;;;;;16.55;12.30;;;11.10;99.90;;;;;;5067998;28;20124;-84
2023/04/18 08:30:35;;;;;;;15.50;12.20;;;10.90;99.90;;;;;;5059795;28;20038;-84
2023/04/18 08:33:01;;;;;;;15.93;12.40;;;11.00;99.90;;;;;;5067103;28;20162;-82
2023/04/18 08:35:27;;;;;;;16.05;12.27;;;11.10;99.90;;;;;;5061281;28;20033;-83
2023/04/18 08:37:52;;;;;;;15.93;13.98;;;11.80;99.90;;;;;;5048281;28;20032;-82
2023/04/18 08:40:18;;;;;;;13.88;12.18;;;11.30;99.90;;;;;;5056592;28;20043;-82
2023/04/18 08:42:44;;;;;;;14.27;11.95;;;11.40;99.90;;;;;;5045954;28;20116;-82
2023/04/18 08:45:12;;;;;;;14.48;11.40;;;11.60;99.90;;;;;;5056880;28;20135;-82
2023/04/18 08:47:39;;;;;;;15.65;12.52;;;11.80;99.90;;;;;;5084547;28;20392;-82
2023/04/18 08:50:06;;;;;;;15.20;12.43;;;11.80;99.90;;;;;;5059187;28;20044;-83
2023/04/18 08:52:34;;;;;;;16.67;12.98;;;11.80;99.90;;;;;;5047786;28;20040;-82
2023/04/18 08:55:01;;;;;;;18.15;13.63;;;12.20;99.90;;;;;;5061527;28;20043;-81
2023/04/18 08:57:28;;;;;;;13.40;11.73;;;12.30;99.90;;;;;;5062126;28;20071;-83
2023/04/18 08:59:54;;;;;;;15.30;11.80;;;12.10;99.90;;;;;;5066550;28;20076;-82
2023/04/18 09:02:23;;;;;;;14.85;12.50;;;12.30;99.90;;;;;;5060491;28;20066;-83
2023/04/18 09:04:51;;;;;;;13.05;11.63;;;12.00;99.90;;;;;;5059766;28;20032;-81
2023/04/18 09:07:25;;;;;;;17.25;13.75;;;12.40;99.90;;;;;;5052288;28;20032;-82
2023/04/18 09:09:53;;;;;;;14.35;11.90;;;12.80;99.90;;;;;;5042924;28;20072;-82
2023/04/18 09:12:24;;;;;;;16.42;13.05;;;12.50;99.90;;;;;;5068856;28;20047;-82
2023/04/18 09:15:08;;;;;;;17.15;13.38;;;12.60;99.90;;;;;;5044652;28;20123;-83
2023/04/18 09:17:42;;;;;;;16.75;12.38;;;12.70;99.90;;;;;;5048833;28;20035;-84
2023/04/18 09:20:14;;;;;;;15.52;13.18;;;12.90;99.90;;;;;;5040993;28;20036;-85
2023/04/18 09:22:49;;;;;;;16.10;13.07;;;12.50;99.90;;;;;;5061116;28;20123;-82
2023/04/18 09:25:36;;;;;;;15.90;12.95;;;12.30;99.90;;;;;;5083127;28;20055;-84
2023/04/18 09:28:03;;;;;;;14.65;13.00;;;13.30;99.90;;;;;;5055814;28;20527;-85
2023/04/18 09:30:39;;;;;;;16.83;13.43;;;13.00;99.90;;;;;;5047856;28;20318;-82
2023/04/18 09:33:11;;;;;;;16.52;13.85;;;13.50;99.90;;;;;;5041984;28;20465;-83
2023/04/18 09:35:37;;;;;;;15.90;12.60;;;14.20;99.90;;;;;;5051137;28;20159;-84
2023/04/18 09:38:04;;;;;;;14.70;13.15;;;14.30;99.90;;;;;;5064391;28;20041;-82
2023/04/18 09:40:30;;;;;;;16.30;12.75;;;14.70;99.90;;;;;;5046921;28;20105;-81
2023/04/18 09:42:56;;;;;;;19.00;13.70;;;15.10;99.90;;;;;;5043266;28;20033;-82
2023/04/18 09:45:23;;;;;;;15.95;13.02;;;15.50;99.90;;;;;;5076193;28;20094;-81
2023/04/18 09:47:49;;;;;;;15.02;13.43;;;15.60;99.90;;;;;;5064156;28;20036;-80
2023/04/18 09:50:17;;;;;;;16.63;12.30;;;15.70;99.90;;;;;;5071747;28;20127;-79
2023/04/18 09:52:44;;;;;;;13.98;12.43;;;15.20;99.90;;;;;;5051428;28;20024;-81
2023/04/18 09:55:15;;;;;;;15.13;11.82;;;15.20;99.90;;;;;;5064800;28;20040;-80
2023/04/18 09:57:46;;;;;;;16.20;12.73;;;15.60;99.90;;;;;;5081751;28;20089;-81
2023/04/18 10:00:24;;;;;;;15.98;12.10;;;15.40;99.90;;;;;;5059476;28;20373;-81
2023/04/18 10:03:09;;;;;;;13.57;10.88;;;15.30;99.90;;;;;;5080918;28;20042;-79
2023/04/18 10:05:37;;;;;;;16.88;11.68;;;15.10;99.90;;;;;;5076217;28;20039;-80
2023/04/18 10:08:03;;;;;;;12.70;10.43;;;15.40;99.90;;;;;;5095937;28;20036;-82
2023/04/18 10:10:29;;;;;;;12.20;10.90;;;16.60;99.90;;;;;;5107961;28;20043;-82
2023/04/18 10:12:57;;;;;;;14.00;11.27;;;16.10;99.90;;;;;;5085451;28;20044;-80
2023/04/18 10:15:27;;;;;;;11.65;10.18;;;16.00;99.90;;;;;;5087429;28;20123;-80
2023/04/18 10:18:08;;;;;;;10.07;9.07;;;16.00;99.90;;;;;;5094345;28;20066;-81
2023/04/18 10:20:34;;;;;;;10.80;9.60;;;16.10;99.90;;;;;;5084278;28;20101;-81
2023/04/18 10:23:37;;;;;;;11.05;9.95;;;16.60;99.90;;;;;;5086504;28;20035;-81
2023/04/18 10:26:06;;;;;;;10.73;9.15;;;16.50;99.90;;;;;;5097058;28;20036;-82
2023/04/18 10:28:51;;;;;;;11.30;10.13;;;16.90;99.90;;;;;;5075814;28;20048;-82
2023/04/18 10:31:20;;;;;;;11.80;10.52;;;17.10;80.10;;;;;;5081957;28;20104;-81
2023/04/18 10:33:48;;;;;;;12.63;10.95;;;17.50;99.90;;;;;;5102980;28;20048;-82
2023/04/18 10:36:16;;;;;;;12.52;11.32;;;17.80;99.90;;;;;;5101907;28;20059;-81
2023/04/18 10:38:48;;;;;;;13.00;11.80;;;17.60;95.20;;;;;;5092163;28;20127;-82
2023/04/18 10:41:26;;;;;;;13.68;12.38;;;18.30;77.90;;;;;;5094567;28;20499;-81
2023/04/18 10:44:13;;;;;;;14.30;12.90;;;17.50;84.30;;;;;;5059637;28;20069;-82
2023/04/18 10:47:02;;;;;;;13.77;12.40;;;17.70;84.20;;;;;;5095428;28;20094;-79
2023/04/18 10:49:30;;;;;;;13.45;11.88;;;17.10;85.70;;;;;;5052498;28;20044;-84
2023/04/18 10:52:00;;;;;;;13.70;12.30;;;16.80;85.70;;;;;;5055717;28;20039;-85
2023/04/18 10:54:32;;;;;;;13.48;12.18;;;16.60;84.20;;;;;;5070388;28;20048;-83
2023/04/18 10:57:03;;;;;;;14.25;12.75;;;16.30;87.50;;;;;;5066533;28;20032;-82
2023/04/18 11:00:02;;;;;;;13.48;12.18;;;16.10;89.10;;;;;;5056222;28;20040;-82
2023/04/18 11:02:32;;;;;;;13.82;12.52;;;16.70;85.30;;;;;;5079153;28;20040;-82
2023/04/18 11:05:00;;;;;;;13.75;12.35;;;16.20;91.40;;;;;;5069658;28;20045;-80
2023/04/18 11:07:47;;;;;;;13.40;12.10;;;15.90;93.20;;;;;;5085710;28;20051;-81
2023/04/18 11:10:17;;;;;;;14.35;12.02;;;16.30;81.60;;;;;;5078931;28;20071;-80
2023/04/18 11:12:43;;;;;;;12.13;10.90;;;16.60;92.30;;;;;;5074177;28;20034;-82
2023/04/18 11:15:16;;;;;;;11.88;10.52;;;16.70;89.90;;;;;;5074792;28;20162;-82
2023/04/18 11:17:43;;;;;;;12.43;11.15;;;16.90;84.70;;;;;;5062328;28;20024;-82
2023/04/18 11:20:11;;;;;;;12.77;11.57;;;16.90;90.10;;;;;;5073707;28;20111;-81
2023/04/18 11:22:51;;;;;;;13.57;12.10;;;18.10;91.10;;;;;;5057566;28;20071;-82
2023/04/18 11:25:21;;;;;;;13.80;11.82;;;17.90;76.70;;;;;;5066789;28;20059;-82
2023/04/18 11:27:50;;;;;;;13.27;11.93;;;18.30;79.60;;;;;;5053566;28;20047;-82
2023/04/18 11:30:16;;;;;;;12.27;10.65;;;18.80;77.10;;;;;;5067200;28;20090;-83
2023/04/18 11:32:42;;;;;;;12.38;11.25;;;19.20;74.40;;;;;;5051771;28;20443;-83
2023/04/18 11:35:09;;;;;;;12.57;11.48;;;20.00;72.00;;;;;;5047605;28;20051;-80
2023/04/18 11:37:37;;;;;;;12.80;11.68;;;20.10;69.60;;;;;;5068357;28;20044;-80
2023/04/18 11:40:06;;;;;;;12.38;11.20;;;20.50;67.50;;;;;;5059442;28;20040;-80
2023/04/18 11:42:33;;;;;;;12.35;11.25;;;20.30;65.90;;;;;;5054085;28;20068;-81
2023/04/18 11:44:59;;;;;;;12.18;11.07;;;20.90;65.70;;;;;;5069714;28;20040;-79
2023/04/18 11:47:30;;;;;;;12.57;11.40;;;21.40;63.50;;;;;;5059707;28;20056;-79
2023/04/18 11:50:01;;;;;;;12.07;10.90;;;22.10;63.80;;;;;;5066538;28;20170;-81
2023/04/18 11:52:29;;;;;;;12.63;11.38;;;21.90;60.30;;;;;;5061235;28;20044;-78
2023/04/18 11:54:55;;;;;;;11.70;10.60;;;21.30;61.70;;;;;;5069607;28;20044;-80
2023/04/18 11:57:22;;;;;;;22.27;11.98;;;21.80;61.90;;;;;;5058041;28;20507;-80
2023/04/18 11:59:53;;;;;;;11.50;10.45;;;21.20;60.60;;;;;;5060398;28;20036;-80
2023/04/18 12:02:21;;;;;;;11.68;9.73;;;21.20;59.60;;;;;;5039536;28;20033;-77
2023/04/18 12:04:51;;;;;;;11.70;10.52;;;20.80;59.90;;;;;;5047752;28;20040;-82
2023/04/18 12:07:34;;;;;;;10.88;9.88;;;20.60;60.10;;;;;;5062562;28;20626;-81
2023/04/18 12:10:00;;;;;;;11.00;9.88;;;20.80;61.20;;;;;;5059171;28;20032;-82
2023/04/18 12:12:25;;;;;;;11.85;10.75;;;20.90;61.50;;;;;;5060814;28;20047;-80
2023/04/18 12:15:03;;;;;;;12.00;10.40;;;21.40;59.90;;;;;;5039301;28;20036;-82
2023/04/18 12:17:29;;;;;;;12.02;10.63;;;22.20;59.70;;;;;;5063989;28;20040;-81
2023/04/18 12:19:56;;;;;;;12.30;11.02;;;22.00;58.70;;;;;;5055880;28;20396;-81
2023/04/18 12:22:39;;;;;;;11.23;10.15;;;21.10;57.90;;;;;;5045137;28;20040;-79
2023/04/18 12:25:20;;;;;;;11.57;10.60;;;20.40;58.40;;;;;;5062187;28;20102;-80
2023/04/18 12:28:22;;;;;;;11.70;10.60;;;21.00;59.40;;;;;;5062011;28;20032;-77
2023/04/18 12:30:47;;;;;;;11.48;10.48;;;21.50;58.00;;;;;;5073417;28;20447;-79
2023/04/18 12:33:13;;;;;;;10.95;9.93;;;22.30;58.50;;;;;;5058062;28;20044;-79
2023/04/18 12:35:39;;;;;;;11.65;10.65;;;22.50;57.70;;;;;;5061582;28;20038;-79